ASL15M LEMD-LYBE
Flight info
| Callsign | ASL15M |
|---|---|
| Flight time | 2h 32m |
| Altitude | 36000 |
| Route | PINAR DCT SEGRE DCT BRITO DCT PISUS N870 BCN DCT DIPES N725 OSPOK DCT NOLVI DCT ORKUM DCT ELSAG DCT ALG DCT VAPUP DCT KENEM DCT VRANA DCT GILUK DCT KEB DCT SOMUN L5 ENUPU |
| Aircraft | A320/M-SDE3FGHIRWY/LB1 |
Departure
| Time | 2026-05-04 17:02 |
|---|---|
| Airport | Adolfo Suárez Madrid–Barajas Airport (LEMD) |
Arrival
| Time | 2026-05-04 19:34 |
|---|---|
| Airport | Belgrade Nikola Tesla Airport (LYBE) |
| Time | Latitude | Longitude | Altitude | Speed | Heading |
|---|---|---|---|---|---|
| 2026-05-04 16:22 | 40.49220 | -3.56346 | 1965 ft | 0 kts | 271° |
| 2026-05-04 16:50 | 40.49215 | -3.56283 | 1963 ft | 4 kts | 285° |
| 2026-05-04 16:50 | 40.49194 | -3.56246 | 1965 ft | 0 kts | 360° |
| 2026-05-04 16:54 | 40.49196 | -3.56246 | 1962 ft | 1 kts | 360° |
| 2026-05-04 16:55 | 40.49314 | -3.56246 | 1962 ft | 7 kts | 360° |
| 2026-05-04 16:55 | 40.49409 | -3.56181 | 1960 ft | 11 kts | 88° |
| 2026-05-04 16:56 | 40.49443 | -3.55958 | 1961 ft | 13 kts | 52° |
| 2026-05-04 16:56 | 40.49464 | -3.55921 | 1962 ft | 0 kts | 52° |
| 2026-05-04 16:57 | 40.49465 | -3.55920 | 1965 ft | 0 kts | 52° |
| 2026-05-04 16:57 | 40.49468 | -3.55915 | 1964 ft | 0 kts | 52° |
| 2026-05-04 16:58 | 40.49475 | -3.55904 | 1962 ft | 0 kts | 52° |
| 2026-05-04 17:00 | 40.49475 | -3.55903 | 1962 ft | 0 kts | 52° |
| 2026-05-04 17:01 | 40.49477 | -3.55781 | 1963 ft | 14 kts | 141° |
| 2026-05-04 17:01 | 40.48941 | -3.55240 | 1952 ft | 106 kts | 142° |
| 2026-05-04 17:02 | 40.47289 | -3.53546 | 2105 ft | 174 kts | 145° |
| 2026-05-04 17:02 | 40.45391 | -3.51658 | 3333 ft | 176 kts | 146° |
| 2026-05-04 17:03 | 40.44351 | -3.50632 | 3580 ft | 198 kts | 147° |
| 2026-05-04 17:03 | 40.43190 | -3.49482 | 3838 ft | 221 kts | 145° |
| 2026-05-04 17:03 | 40.40461 | -3.46761 | 4464 ft | 270 kts | 146° |
| 2026-05-04 17:04 | 40.37474 | -3.43555 | 6014 ft | 283 kts | 133° |
| 2026-05-04 17:04 | 40.36413 | -3.38573 | 7612 ft | 298 kts | 81° |
| 2026-05-04 17:05 | 40.37195 | -3.33164 | 9252 ft | 305 kts | 80° |
| 2026-05-04 17:05 | 40.38000 | -3.27601 | 10426 ft | 325 kts | 80° |
| 2026-05-04 17:06 | 40.39341 | -3.21541 | 10708 ft | 370 kts | 57° |
| 2026-05-04 17:06 | 40.41124 | -3.19044 | 11042 ft | 380 kts | 33° |
| 2026-05-04 17:07 | 40.46136 | -3.17472 | 12260 ft | 377 kts | 351° |
| 2026-05-04 17:07 | 40.47869 | -3.17762 | 12687 ft | 379 kts | 349° |
| 2026-05-04 17:07 | 40.51340 | -3.18388 | 13559 ft | 383 kts | 349° |
| 2026-05-04 17:07 | 40.53993 | -3.18883 | 14155 ft | 386 kts | 349° |
| 2026-05-04 17:08 | 40.56696 | -3.19391 | 14734 ft | 389 kts | 348° |
| 2026-05-04 17:08 | 40.62119 | -3.19755 | 15825 ft | 403 kts | 8° |
| 2026-05-04 17:08 | 40.64783 | -3.18491 | 16375 ft | 413 kts | 27° |
| 2026-05-04 17:09 | 40.67040 | -3.16107 | 16918 ft | 422 kts | 47° |
| 2026-05-04 17:09 | 40.68829 | -3.13010 | 17482 ft | 427 kts | 52° |
| 2026-05-04 17:09 | 40.70585 | -3.09829 | 18052 ft | 431 kts | 52° |
| 2026-05-04 17:10 | 40.74137 | -3.03374 | 19070 ft | 438 kts | 52° |
| 2026-05-04 17:10 | 40.79575 | -2.93532 | 20590 ft | 446 kts | 52° |
| 2026-05-04 17:11 | 40.81412 | -2.90211 | 21039 ft | 449 kts | 52° |
| 2026-05-04 17:11 | 40.83258 | -2.86869 | 21493 ft | 452 kts | 52° |
| 2026-05-04 17:11 | 40.86962 | -2.80147 | 22305 ft | 457 kts | 52° |
| 2026-05-04 17:12 | 40.88835 | -2.76744 | 22727 ft | 460 kts | 52° |
| 2026-05-04 17:12 | 40.92618 | -2.69836 | 23486 ft | 466 kts | 53° |
| 2026-05-04 17:13 | 40.98336 | -2.59318 | 24456 ft | 473 kts | 56° |
| 2026-05-04 17:14 | 41.00740 | -2.46665 | 25317 ft | 482 kts | 78° |
| 2026-05-04 17:14 | 41.01474 | -2.42320 | 25606 ft | 485 kts | 77° |
| 2026-05-04 17:14 | 41.03005 | -2.33619 | 26178 ft | 490 kts | 76° |
| 2026-05-04 17:15 | 41.03825 | -2.29226 | 26567 ft | 491 kts | 76° |
| 2026-05-04 17:15 | 41.05507 | -2.20472 | 27387 ft | 490 kts | 76° |
| 2026-05-04 17:16 | 41.07185 | -2.11716 | 28200 ft | 491 kts | 76° |
| 2026-05-04 17:16 | 41.09656 | -1.98516 | 29392 ft | 492 kts | 77° |
| 2026-05-04 17:17 | 41.10475 | -1.94102 | 29803 ft | 493 kts | 77° |
| 2026-05-04 17:17 | 41.12914 | -1.80861 | 30937 ft | 492 kts | 77° |
| 2026-05-04 17:18 | 41.13724 | -1.76448 | 31321 ft | 492 kts | 77° |
| 2026-05-04 17:18 | 41.15347 | -1.67619 | 32089 ft | 492 kts | 77° |
| 2026-05-04 17:19 | 41.16956 | -1.58802 | 32842 ft | 491 kts | 78° |
| 2026-05-04 17:19 | 41.18544 | -1.50044 | 33603 ft | 491 kts | 78° |
| 2026-05-04 17:20 | 41.20140 | -1.41218 | 34288 ft | 491 kts | 78° |
| 2026-05-04 17:20 | 41.21726 | -1.32397 | 34866 ft | 491 kts | 78° |
| 2026-05-04 17:20 | 41.22518 | -1.27981 | 34954 ft | 494 kts | 78° |
| 2026-05-04 17:21 | 41.25747 | -1.09897 | 34972 ft | 507 kts | 78° |
| 2026-05-04 17:22 | 41.27218 | -1.01593 | 34959 ft | 507 kts | 78° |
| 2026-05-04 17:23 | 41.30435 | -0.83328 | 34955 ft | 507 kts | 78° |
| 2026-05-04 17:24 | 41.32833 | -0.69616 | 34943 ft | 508 kts | 79° |
| 2026-05-04 17:25 | 41.35375 | -0.51210 | 34960 ft | 501 kts | 94° |
| 2026-05-04 17:26 | 41.35236 | -0.32670 | 34957 ft | 501 kts | 94° |
| 2026-05-04 17:27 | 41.35028 | -0.09585 | 34947 ft | 500 kts | 94° |
| 2026-05-04 17:28 | 41.34841 | 0.08926 | 34932 ft | 500 kts | 95° |
| 2026-05-04 17:29 | 41.34470 | 0.36731 | 34910 ft | 502 kts | 95° |
| 2026-05-04 17:31 | 41.34121 | 0.59917 | 34918 ft | 503 kts | 95° |
| 2026-05-04 17:32 | 41.33760 | 0.81630 | 34907 ft | 503 kts | 95° |
| 2026-05-04 17:33 | 41.33416 | 1.00260 | 34941 ft | 503 kts | 95° |
| 2026-05-04 17:34 | 41.33034 | 1.18858 | 34928 ft | 503 kts | 96° |
| 2026-05-04 17:35 | 41.32523 | 1.42085 | 34953 ft | 501 kts | 96° |
| 2026-05-04 17:36 | 41.32301 | 1.51351 | 34943 ft | 501 kts | 96° |
| 2026-05-04 17:36 | 41.32068 | 1.60551 | 34931 ft | 500 kts | 96° |
| 2026-05-04 17:37 | 41.31835 | 1.69784 | 34943 ft | 500 kts | 96° |
| 2026-05-04 17:37 | 41.31608 | 1.79024 | 34949 ft | 499 kts | 96° |
| 2026-05-04 17:38 | 41.31363 | 1.88260 | 34959 ft | 499 kts | 97° |
| 2026-05-04 17:38 | 41.31102 | 1.97484 | 34937 ft | 499 kts | 97° |
| 2026-05-04 17:39 | 41.30572 | 2.11307 | 34940 ft | 495 kts | 104° |
| 2026-05-04 17:39 | 41.29172 | 2.20208 | 34944 ft | 492 kts | 108° |
| 2026-05-04 17:40 | 41.27701 | 2.29091 | 34921 ft | 492 kts | 108° |
| 2026-05-04 17:40 | 41.26226 | 2.37979 | 34926 ft | 493 kts | 108° |
| 2026-05-04 17:41 | 41.24753 | 2.46822 | 34929 ft | 493 kts | 108° |
| 2026-05-04 17:41 | 41.23271 | 2.55719 | 34926 ft | 493 kts | 108° |
| 2026-05-04 17:42 | 41.21779 | 2.64620 | 34932 ft | 493 kts | 108° |
| 2026-05-04 17:42 | 41.20267 | 2.73515 | 34907 ft | 493 kts | 109° |
| 2026-05-04 17:43 | 41.18748 | 2.82400 | 34916 ft | 494 kts | 109° |
| 2026-05-04 17:43 | 41.17231 | 2.91284 | 34919 ft | 494 kts | 109° |
| 2026-05-04 17:44 | 41.15712 | 3.00129 | 34933 ft | 494 kts | 109° |
| 2026-05-04 17:44 | 41.14176 | 3.09034 | 34919 ft | 495 kts | 109° |
| 2026-05-04 17:45 | 41.12627 | 3.17917 | 34934 ft | 495 kts | 109° |
| 2026-05-04 17:45 | 41.11076 | 3.26809 | 34939 ft | 495 kts | 109° |
| 2026-05-04 17:46 | 41.09528 | 3.35707 | 34946 ft | 495 kts | 109° |
| 2026-05-04 17:46 | 41.07965 | 3.44593 | 34917 ft | 495 kts | 109° |
| 2026-05-04 17:47 | 41.06392 | 3.53471 | 34929 ft | 495 kts | 109° |
| 2026-05-04 17:47 | 41.04814 | 3.62363 | 34933 ft | 496 kts | 109° |
| 2026-05-04 17:48 | 41.03239 | 3.71193 | 34936 ft | 496 kts | 109° |
| 2026-05-04 17:48 | 41.01647 | 3.80067 | 34940 ft | 496 kts | 109° |
| 2026-05-04 17:49 | 41.00040 | 3.88947 | 34923 ft | 496 kts | 109° |
| 2026-05-04 17:49 | 40.98425 | 3.97828 | 34936 ft | 496 kts | 109° |
| 2026-05-04 17:50 | 40.96803 | 4.06726 | 34943 ft | 497 kts | 109° |
| 2026-05-04 17:50 | 40.95182 | 4.15607 | 34950 ft | 497 kts | 109° |
| 2026-05-04 17:51 | 40.93556 | 4.24493 | 34920 ft | 497 kts | 110° |
| 2026-05-04 17:51 | 40.92191 | 4.31864 | 34922 ft | 497 kts | 110° |
| 2026-05-04 17:52 | 40.90758 | 4.39551 | 34933 ft | 497 kts | 110° |
| 2026-05-04 17:52 | 40.89099 | 4.48430 | 34941 ft | 498 kts | 110° |
| 2026-05-04 17:53 | 40.87446 | 4.57323 | 34943 ft | 498 kts | 110° |
| 2026-05-04 17:53 | 40.85812 | 4.66229 | 34935 ft | 501 kts | 107° |
| 2026-05-04 17:54 | 40.84894 | 4.75406 | 34948 ft | 505 kts | 102° |
| 2026-05-04 17:54 | 40.84048 | 4.84627 | 34955 ft | 505 kts | 103° |
| 2026-05-04 17:55 | 40.83189 | 4.93835 | 34960 ft | 505 kts | 103° |
| 2026-05-04 17:55 | 40.82312 | 5.03032 | 34957 ft | 505 kts | 103° |
| 2026-05-04 17:56 | 40.81440 | 5.12224 | 34967 ft | 505 kts | 103° |
| 2026-05-04 17:56 | 40.80565 | 5.21368 | 34975 ft | 505 kts | 103° |
| 2026-05-04 17:57 | 40.79679 | 5.30557 | 34977 ft | 505 kts | 103° |
| 2026-05-04 17:57 | 40.78783 | 5.39747 | 34971 ft | 504 kts | 102° |
| 2026-05-04 17:58 | 40.77881 | 5.48904 | 34979 ft | 503 kts | 102° |
| 2026-05-04 17:58 | 40.76974 | 5.58060 | 34977 ft | 503 kts | 102° |
| 2026-05-04 17:59 | 40.76063 | 5.67192 | 34981 ft | 502 kts | 102° |
| 2026-05-04 18:00 | 40.74679 | 5.80872 | 34974 ft | 501 kts | 102° |
| 2026-05-04 18:00 | 40.73743 | 5.89982 | 34989 ft | 501 kts | 102° |
| 2026-05-04 18:01 | 40.72810 | 5.99071 | 35000 ft | 501 kts | 102° |
| 2026-05-04 18:01 | 40.71866 | 6.08162 | 34995 ft | 500 kts | 102° |
| 2026-05-04 18:02 | 40.70442 | 6.21744 | 34994 ft | 500 kts | 102° |
| 2026-05-04 18:02 | 40.69490 | 6.30830 | 34998 ft | 501 kts | 102° |
| 2026-05-04 18:03 | 40.68522 | 6.39918 | 35006 ft | 501 kts | 102° |
| 2026-05-04 18:03 | 40.67542 | 6.49009 | 35002 ft | 501 kts | 102° |
| 2026-05-04 18:04 | 40.66555 | 6.58105 | 35007 ft | 501 kts | 102° |
| 2026-05-04 18:05 | 40.65069 | 6.71756 | 35013 ft | 502 kts | 102° |
| 2026-05-04 18:05 | 40.64070 | 6.80786 | 35018 ft | 502 kts | 102° |
| 2026-05-04 18:06 | 40.62546 | 6.94428 | 35011 ft | 502 kts | 102° |
| 2026-05-04 18:06 | 40.61531 | 7.03517 | 35023 ft | 502 kts | 102° |
| 2026-05-04 18:07 | 40.60501 | 7.12601 | 35027 ft | 502 kts | 102° |
| 2026-05-04 18:07 | 40.59460 | 7.21694 | 35032 ft | 502 kts | 102° |
| 2026-05-04 18:08 | 40.58430 | 7.30781 | 35036 ft | 502 kts | 102° |
| 2026-05-04 18:08 | 40.57377 | 7.39860 | 35038 ft | 502 kts | 102° |
| 2026-05-04 18:09 | 40.57261 | 7.58178 | 35037 ft | 508 kts | 85° |
| 2026-05-04 18:10 | 40.58069 | 7.67419 | 35031 ft | 508 kts | 85° |
| 2026-05-04 18:10 | 40.58853 | 7.76653 | 35040 ft | 508 kts | 85° |
| 2026-05-04 18:11 | 40.59630 | 7.85889 | 35043 ft | 508 kts | 85° |
| 2026-05-04 18:11 | 40.60402 | 7.95119 | 35043 ft | 507 kts | 85° |
| 2026-05-04 18:12 | 40.61165 | 8.04298 | 35031 ft | 507 kts | 85° |
| 2026-05-04 18:12 | 40.61928 | 8.13530 | 35033 ft | 508 kts | 85° |
| 2026-05-04 18:13 | 40.62936 | 8.22725 | 35046 ft | 509 kts | 76° |
| 2026-05-04 18:13 | 40.65551 | 8.31359 | 35039 ft | 508 kts | 61° |
| 2026-05-04 18:14 | 40.67182 | 8.35475 | 35027 ft | 508 kts | 61° |
| 2026-05-04 18:14 | 40.70429 | 8.43751 | 35044 ft | 508 kts | 61° |
| 2026-05-04 18:15 | 40.76868 | 8.60360 | 35058 ft | 509 kts | 61° |
| 2026-05-04 18:16 | 40.80095 | 8.68671 | 35058 ft | 509 kts | 61° |
| 2026-05-04 18:16 | 40.83321 | 8.76988 | 35062 ft | 509 kts | 61° |
| 2026-05-04 18:17 | 40.88101 | 8.89422 | 35070 ft | 508 kts | 62° |
| 2026-05-04 18:18 | 40.92888 | 9.01891 | 35070 ft | 507 kts | 62° |
| 2026-05-04 18:18 | 40.96072 | 9.10206 | 35061 ft | 506 kts | 61° |
| 2026-05-04 18:19 | 41.00827 | 9.22673 | 35083 ft | 506 kts | 62° |
| 2026-05-04 18:19 | 41.03467 | 9.29652 | 35077 ft | 506 kts | 62° |
| 2026-05-04 18:20 | 41.06616 | 9.37983 | 35052 ft | 506 kts | 62° |
| 2026-05-04 18:20 | 41.09748 | 9.46269 | 35045 ft | 506 kts | 62° |
| 2026-05-04 18:21 | 41.12898 | 9.54616 | 35067 ft | 504 kts | 62° |
| 2026-05-04 18:21 | 41.16020 | 9.62938 | 35079 ft | 503 kts | 62° |
| 2026-05-04 18:22 | 41.19133 | 9.71250 | 35075 ft | 503 kts | 62° |
| 2026-05-04 18:22 | 41.22239 | 9.79581 | 35073 ft | 503 kts | 62° |
| 2026-05-04 18:23 | 41.25318 | 9.87869 | 35073 ft | 503 kts | 62° |
| 2026-05-04 18:23 | 41.28418 | 9.96204 | 35082 ft | 503 kts | 61° |
| 2026-05-04 18:24 | 41.31508 | 10.04533 | 35086 ft | 502 kts | 62° |
| 2026-05-04 18:24 | 41.34591 | 10.12895 | 35083 ft | 503 kts | 62° |
| 2026-05-04 18:25 | 41.37670 | 10.21276 | 35055 ft | 505 kts | 62° |
| 2026-05-04 18:25 | 41.40753 | 10.29676 | 35072 ft | 505 kts | 62° |
| 2026-05-04 18:26 | 41.43839 | 10.38089 | 35078 ft | 505 kts | 62° |
| 2026-05-04 18:26 | 41.46915 | 10.46520 | 35093 ft | 505 kts | 62° |
| 2026-05-04 18:27 | 41.49962 | 10.54908 | 35094 ft | 506 kts | 62° |
| 2026-05-04 18:27 | 41.53024 | 10.63364 | 35097 ft | 506 kts | 61° |
| 2026-05-04 18:28 | 41.56089 | 10.71833 | 35103 ft | 507 kts | 61° |
| 2026-05-04 18:28 | 41.59149 | 10.80315 | 35106 ft | 507 kts | 62° |
| 2026-05-04 18:29 | 41.62195 | 10.88816 | 35116 ft | 507 kts | 62° |
| 2026-05-04 18:29 | 41.65243 | 10.97317 | 35115 ft | 507 kts | 62° |
| 2026-05-04 18:30 | 41.69813 | 11.10100 | 35130 ft | 508 kts | 62° |
| 2026-05-04 18:31 | 41.72848 | 11.18654 | 35124 ft | 509 kts | 62° |
| 2026-05-04 18:31 | 41.75882 | 11.27229 | 35124 ft | 510 kts | 62° |
| 2026-05-04 18:32 | 41.78913 | 11.35808 | 35125 ft | 509 kts | 62° |
| 2026-05-04 18:32 | 41.81941 | 11.44385 | 35132 ft | 509 kts | 62° |
| 2026-05-04 18:33 | 41.84950 | 11.52954 | 35150 ft | 508 kts | 62° |
| 2026-05-04 18:33 | 41.87950 | 11.61530 | 35149 ft | 507 kts | 62° |
| 2026-05-04 18:34 | 41.90945 | 11.70101 | 35153 ft | 507 kts | 61° |
| 2026-05-04 18:34 | 41.93922 | 11.78654 | 35187 ft | 506 kts | 61° |
| 2026-05-04 18:35 | 41.96890 | 11.87212 | 35207 ft | 505 kts | 61° |
| 2026-05-04 18:35 | 41.99851 | 11.95763 | 35236 ft | 504 kts | 61° |
| 2026-05-04 18:36 | 42.02806 | 12.04307 | 35239 ft | 503 kts | 62° |
| 2026-05-04 18:36 | 42.05719 | 12.12782 | 35242 ft | 501 kts | 61° |
| 2026-05-04 18:37 | 42.08648 | 12.21354 | 35160 ft | 500 kts | 61° |
| 2026-05-04 18:37 | 42.11546 | 12.29852 | 35162 ft | 499 kts | 61° |
| 2026-05-04 18:38 | 42.14418 | 12.38282 | 35159 ft | 499 kts | 61° |
| 2026-05-04 18:38 | 42.16465 | 12.44300 | 35160 ft | 498 kts | 61° |
| 2026-05-04 18:39 | 42.19351 | 12.52796 | 35167 ft | 498 kts | 61° |
| 2026-05-04 18:39 | 42.22222 | 12.61292 | 35174 ft | 497 kts | 61° |
| 2026-05-04 18:40 | 42.25081 | 12.69795 | 35180 ft | 497 kts | 61° |
| 2026-05-04 18:40 | 42.27930 | 12.78304 | 35186 ft | 497 kts | 61° |
| 2026-05-04 18:41 | 42.30783 | 12.86801 | 35194 ft | 496 kts | 61° |
| 2026-05-04 18:41 | 42.33626 | 12.95292 | 35182 ft | 497 kts | 61° |
| 2026-05-04 18:42 | 42.36454 | 13.03812 | 35181 ft | 497 kts | 61° |
| 2026-05-04 18:42 | 42.39274 | 13.12348 | 35174 ft | 497 kts | 61° |
| 2026-05-04 18:43 | 42.42095 | 13.20878 | 35161 ft | 496 kts | 61° |
| 2026-05-04 18:43 | 42.44762 | 13.28975 | 35164 ft | 495 kts | 61° |
| 2026-05-04 18:44 | 42.47544 | 13.37440 | 35164 ft | 495 kts | 61° |
| 2026-05-04 18:44 | 42.50339 | 13.45961 | 35148 ft | 495 kts | 61° |
| 2026-05-04 18:45 | 42.53120 | 13.54483 | 35134 ft | 494 kts | 61° |
| 2026-05-04 18:45 | 42.55884 | 13.62990 | 35145 ft | 493 kts | 61° |
| 2026-05-04 18:46 | 42.58638 | 13.71506 | 35133 ft | 493 kts | 61° |
| 2026-05-04 18:46 | 42.61391 | 13.80017 | 35128 ft | 492 kts | 61° |
| 2026-05-04 18:47 | 42.64136 | 13.88520 | 35116 ft | 491 kts | 61° |
| 2026-05-04 18:47 | 42.66873 | 13.97010 | 35107 ft | 490 kts | 61° |
| 2026-05-04 18:48 | 42.69594 | 14.05505 | 35115 ft | 490 kts | 61° |
| 2026-05-04 18:48 | 42.72300 | 14.14011 | 35103 ft | 490 kts | 61° |
| 2026-05-04 18:49 | 42.75002 | 14.22508 | 35126 ft | 489 kts | 62° |
| 2026-05-04 18:49 | 42.77697 | 14.30990 | 35120 ft | 487 kts | 62° |
| 2026-05-04 18:50 | 42.80377 | 14.39457 | 35113 ft | 486 kts | 62° |
| 2026-05-04 18:50 | 42.83044 | 14.47905 | 35112 ft | 486 kts | 62° |
| 2026-05-04 18:51 | 42.85698 | 14.56367 | 35116 ft | 485 kts | 62° |
| 2026-05-04 18:51 | 42.88349 | 14.64832 | 35115 ft | 485 kts | 62° |
| 2026-05-04 18:52 | 42.90993 | 14.73301 | 35127 ft | 485 kts | 63° |
| 2026-05-04 18:52 | 42.93623 | 14.81779 | 35124 ft | 485 kts | 63° |
| 2026-05-04 18:53 | 42.96259 | 14.90252 | 35123 ft | 485 kts | 63° |
| 2026-05-04 18:53 | 42.98862 | 14.98659 | 35131 ft | 484 kts | 63° |
| 2026-05-04 18:54 | 43.01469 | 15.07122 | 35132 ft | 483 kts | 63° |
| 2026-05-04 18:54 | 43.04085 | 15.15629 | 35140 ft | 482 kts | 64° |
| 2026-05-04 18:55 | 43.06670 | 15.23985 | 35136 ft | 480 kts | 63° |
| 2026-05-04 18:55 | 43.10918 | 15.36343 | 35137 ft | 477 kts | 60° |
| 2026-05-04 18:56 | 43.13786 | 15.44533 | 35133 ft | 477 kts | 61° |
| 2026-05-04 18:56 | 43.16589 | 15.52759 | 35141 ft | 477 kts | 62° |
| 2026-05-04 18:57 | 43.19349 | 15.61012 | 35132 ft | 476 kts | 62° |
| 2026-05-04 18:57 | 43.22116 | 15.69247 | 35136 ft | 475 kts | 62° |
| 2026-05-04 18:58 | 43.24880 | 15.77474 | 35129 ft | 474 kts | 62° |
| 2026-05-04 18:58 | 43.27636 | 15.85685 | 35128 ft | 474 kts | 62° |
| 2026-05-04 18:59 | 43.30388 | 15.93903 | 35136 ft | 474 kts | 63° |
| 2026-05-04 18:59 | 43.33119 | 16.02119 | 35147 ft | 472 kts | 63° |
| 2026-05-04 19:00 | 43.35832 | 16.10316 | 35142 ft | 470 kts | 63° |
| 2026-05-04 19:00 | 43.38534 | 16.18491 | 35141 ft | 469 kts | 63° |
| 2026-05-04 19:01 | 43.41230 | 16.26655 | 35138 ft | 469 kts | 63° |
| 2026-05-04 19:01 | 43.43918 | 16.34821 | 35142 ft | 469 kts | 63° |
| 2026-05-04 19:02 | 43.46599 | 16.42999 | 35135 ft | 469 kts | 63° |
| 2026-05-04 19:02 | 43.49273 | 16.51187 | 35131 ft | 469 kts | 63° |
| 2026-05-04 19:03 | 43.51937 | 16.59388 | 35130 ft | 469 kts | 63° |
| 2026-05-04 19:03 | 43.54598 | 16.67595 | 35140 ft | 469 kts | 63° |
| 2026-05-04 19:04 | 43.57261 | 16.75799 | 35151 ft | 468 kts | 63° |
| 2026-05-04 19:04 | 43.59912 | 16.84003 | 35159 ft | 468 kts | 63° |
| 2026-05-04 19:05 | 43.62102 | 16.90816 | 35158 ft | 467 kts | 63° |
| 2026-05-04 19:05 | 43.64290 | 16.99274 | 35157 ft | 469 kts | 72° |
| 2026-05-04 19:06 | 43.66354 | 17.09349 | 35164 ft | 469 kts | 71° |
| 2026-05-04 19:06 | 43.68132 | 17.17996 | 35163 ft | 467 kts | 71° |
| 2026-05-04 19:07 | 43.69613 | 17.25232 | 35169 ft | 467 kts | 71° |
| 2026-05-04 19:07 | 43.71365 | 17.33865 | 35164 ft | 466 kts | 71° |
| 2026-05-04 19:08 | 43.73103 | 17.42482 | 35153 ft | 466 kts | 72° |
| 2026-05-04 19:08 | 43.74832 | 17.51105 | 35157 ft | 465 kts | 71° |
| 2026-05-04 19:09 | 43.76566 | 17.59720 | 35147 ft | 464 kts | 71° |
| 2026-05-04 19:09 | 43.78290 | 17.68253 | 35139 ft | 464 kts | 71° |
| 2026-05-04 19:10 | 43.79740 | 17.75463 | 35144 ft | 463 kts | 71° |
| 2026-05-04 19:10 | 43.82414 | 17.85006 | 35128 ft | 454 kts | 52° |
| 2026-05-04 19:11 | 43.86029 | 17.92142 | 35127 ft | 453 kts | 51° |
| 2026-05-04 19:11 | 43.89679 | 17.99256 | 35113 ft | 452 kts | 51° |
| 2026-05-04 19:12 | 43.95125 | 18.09932 | 35112 ft | 452 kts | 51° |
| 2026-05-04 19:13 | 43.98736 | 18.17064 | 35103 ft | 452 kts | 52° |
| 2026-05-04 19:13 | 44.02343 | 18.24197 | 35096 ft | 451 kts | 51° |
| 2026-05-04 19:14 | 44.05952 | 18.31342 | 35092 ft | 452 kts | 52° |
| 2026-05-04 19:14 | 44.09556 | 18.38507 | 35099 ft | 452 kts | 52° |
| 2026-05-04 19:15 | 44.13157 | 18.45673 | 35096 ft | 452 kts | 52° |
| 2026-05-04 19:15 | 44.16753 | 18.52845 | 35094 ft | 452 kts | 52° |
| 2026-05-04 19:15 | 44.18549 | 18.56441 | 34935 ft | 451 kts | 52° |
| 2026-05-04 19:16 | 44.20346 | 18.60039 | 34136 ft | 454 kts | 52° |
| 2026-05-04 19:16 | 44.22159 | 18.63665 | 33170 ft | 457 kts | 52° |
| 2026-05-04 19:16 | 44.23971 | 18.67298 | 32305 ft | 457 kts | 52° |
| 2026-05-04 19:16 | 44.25785 | 18.70944 | 31343 ft | 459 kts | 52° |
| 2026-05-04 19:17 | 44.27602 | 18.74609 | 30419 ft | 460 kts | 52° |
| 2026-05-04 19:17 | 44.29423 | 18.78288 | 29278 ft | 462 kts | 53° |
| 2026-05-04 19:17 | 44.31252 | 18.81981 | 28173 ft | 463 kts | 53° |
| 2026-05-04 19:17 | 44.33083 | 18.85682 | 27056 ft | 463 kts | 53° |
| 2026-05-04 19:18 | 44.34896 | 18.89347 | 25843 ft | 466 kts | 53° |
| 2026-05-04 19:18 | 44.36764 | 18.93125 | 24630 ft | 466 kts | 53° |
| 2026-05-04 19:18 | 44.38574 | 18.96795 | 23457 ft | 451 kts | 54° |
| 2026-05-04 19:18 | 44.40345 | 19.00384 | 22424 ft | 446 kts | 54° |
| 2026-05-04 19:19 | 44.42096 | 19.03936 | 21537 ft | 441 kts | 54° |
| 2026-05-04 19:19 | 44.43806 | 19.07410 | 20658 ft | 437 kts | 54° |
| 2026-05-04 19:19 | 44.45518 | 19.10904 | 19759 ft | 433 kts | 54° |
| 2026-05-04 19:19 | 44.47234 | 19.14416 | 18863 ft | 430 kts | 55° |
| 2026-05-04 19:20 | 44.48888 | 19.17808 | 17942 ft | 426 kts | 55° |
| 2026-05-04 19:20 | 44.50546 | 19.21214 | 17072 ft | 420 kts | 55° |
| 2026-05-04 19:20 | 44.52184 | 19.24573 | 16209 ft | 416 kts | 55° |
| 2026-05-04 19:20 | 44.53804 | 19.27894 | 15359 ft | 404 kts | 55° |
| 2026-05-04 19:21 | 44.55352 | 19.31064 | 14591 ft | 386 kts | 55° |
| 2026-05-04 19:21 | 44.56839 | 19.34112 | 13884 ft | 375 kts | 56° |
| 2026-05-04 19:21 | 44.58312 | 19.37135 | 13124 ft | 375 kts | 56° |
| 2026-05-04 19:21 | 44.59775 | 19.40145 | 12444 ft | 371 kts | 56° |
| 2026-05-04 19:22 | 44.61220 | 19.43122 | 11774 ft | 368 kts | 56° |
| 2026-05-04 19:22 | 44.62650 | 19.46073 | 11170 ft | 359 kts | 56° |
| 2026-05-04 19:22 | 44.63996 | 19.48853 | 10983 ft | 329 kts | 56° |
| 2026-05-04 19:22 | 44.65228 | 19.51401 | 10848 ft | 303 kts | 56° |
| 2026-05-04 19:23 | 44.66370 | 19.53759 | 10732 ft | 281 kts | 56° |
| 2026-05-04 19:23 | 44.67428 | 19.55943 | 10600 ft | 262 kts | 56° |
| 2026-05-04 19:23 | 44.68429 | 19.58020 | 10330 ft | 254 kts | 56° |
| 2026-05-04 19:23 | 44.69416 | 19.60075 | 10085 ft | 252 kts | 56° |
| 2026-05-04 19:24 | 44.70395 | 19.62111 | 9889 ft | 250 kts | 56° |
| 2026-05-04 19:24 | 44.71373 | 19.64135 | 9770 ft | 251 kts | 56° |
| 2026-05-04 19:24 | 44.72353 | 19.66168 | 9636 ft | 251 kts | 56° |
| 2026-05-04 19:24 | 44.73329 | 19.68199 | 9500 ft | 250 kts | 56° |
| 2026-05-04 19:25 | 44.74302 | 19.70225 | 9371 ft | 250 kts | 56° |
| 2026-05-04 19:25 | 44.75264 | 19.72229 | 9243 ft | 250 kts | 56° |
| 2026-05-04 19:25 | 44.76236 | 19.74250 | 9080 ft | 250 kts | 56° |
| 2026-05-04 19:25 | 44.77222 | 19.76304 | 8634 ft | 256 kts | 56° |
| 2026-05-04 19:26 | 44.78202 | 19.78352 | 8264 ft | 251 kts | 56° |
| 2026-05-04 19:26 | 44.79157 | 19.80350 | 7988 ft | 239 kts | 55° |
| 2026-05-04 19:26 | 44.80067 | 19.82250 | 7750 ft | 228 kts | 55° |
| 2026-05-04 19:26 | 44.80942 | 19.84077 | 7383 ft | 224 kts | 56° |
| 2026-05-04 19:27 | 44.81813 | 19.85901 | 7020 ft | 225 kts | 56° |
| 2026-05-04 19:27 | 44.82680 | 19.87715 | 6671 ft | 223 kts | 56° |
| 2026-05-04 19:27 | 44.83547 | 19.89531 | 6213 ft | 223 kts | 56° |
| 2026-05-04 19:27 | 44.84411 | 19.91341 | 5780 ft | 222 kts | 57° |
| 2026-05-04 19:28 | 44.85255 | 19.93114 | 5476 ft | 214 kts | 57° |
| 2026-05-04 19:28 | 44.86106 | 19.94897 | 4923 ft | 226 kts | 57° |
| 2026-05-04 19:28 | 44.86984 | 19.96737 | 4536 ft | 223 kts | 57° |
| 2026-05-04 19:28 | 44.87822 | 19.98497 | 4382 ft | 212 kts | 57° |
| 2026-05-04 19:29 | 44.88633 | 20.00205 | 4304 ft | 208 kts | 57° |
| 2026-05-04 19:29 | 44.89427 | 20.01875 | 4189 ft | 203 kts | 57° |
| 2026-05-04 19:29 | 44.90213 | 20.03530 | 4085 ft | 202 kts | 58° |
| 2026-05-04 19:29 | 44.90979 | 20.05193 | 3932 ft | 203 kts | 64° |
| 2026-05-04 19:30 | 44.91399 | 20.07049 | 3716 ft | 198 kts | 85° |
| 2026-05-04 19:30 | 44.91323 | 20.08959 | 3523 ft | 194 kts | 106° |
| 2026-05-04 19:30 | 44.90793 | 20.10653 | 3305 ft | 191 kts | 124° |
| 2026-05-04 19:30 | 44.90082 | 20.12261 | 3052 ft | 190 kts | 124° |
| 2026-05-04 19:31 | 44.89388 | 20.13837 | 2809 ft | 188 kts | 124° |
| 2026-05-04 19:31 | 44.88703 | 20.15393 | 2558 ft | 183 kts | 124° |
| 2026-05-04 19:31 | 44.88055 | 20.16866 | 2326 ft | 170 kts | 124° |
| 2026-05-04 19:31 | 44.87457 | 20.18222 | 2108 ft | 160 kts | 124° |
| 2026-05-04 19:32 | 44.86883 | 20.19523 | 1880 ft | 149 kts | 124° |
| 2026-05-04 19:32 | 44.86360 | 20.20707 | 1715 ft | 140 kts | 124° |
| 2026-05-04 19:32 | 44.85854 | 20.21851 | 1529 ft | 136 kts | 124° |
| 2026-05-04 19:32 | 44.85359 | 20.22973 | 1352 ft | 134 kts | 124° |
| 2026-05-04 19:33 | 44.84867 | 20.24085 | 1176 ft | 134 kts | 124° |
| 2026-05-04 19:33 | 44.84376 | 20.25196 | 1003 ft | 134 kts | 122° |
| 2026-05-04 19:33 | 44.83884 | 20.26307 | 825 ft | 134 kts | 122° |
| 2026-05-04 19:33 | 44.83391 | 20.27422 | 649 ft | 134 kts | 121° |
| 2026-05-04 19:34 | 44.82901 | 20.28535 | 466 ft | 133 kts | 122° |
| 2026-05-04 19:34 | 44.82411 | 20.29639 | 314 ft | 129 kts | 122° |
| 2026-05-04 19:34 | 44.81993 | 20.30579 | 306 ft | 92 kts | 122° |
| 2026-05-04 19:34 | 44.81750 | 20.31119 | 305 ft | 33 kts | 123° |
| 2026-05-04 19:35 | 44.81660 | 20.31263 | 307 ft | 20 kts | 145° |
| 2026-05-04 19:35 | 44.81542 | 20.31361 | 305 ft | 15 kts | 149° |
| 2026-05-04 19:35 | 44.81529 | 20.31371 | 305 ft | 0 kts | 150° |
| 2026-05-04 19:36 | 44.81524 | 20.31375 | 305 ft | 2 kts | 150° |
| 2026-05-04 19:36 | 44.81501 | 20.31390 | 305 ft | 5 kts | 162° |
| 2026-05-04 19:36 | 44.81462 | 20.31361 | 306 ft | 9 kts | 244° |
| 2026-05-04 19:37 | 44.81489 | 20.31255 | 306 ft | 14 kts | 301° |
| 2026-05-04 19:37 | 44.81546 | 20.31128 | 306 ft | 16 kts | 302° |
| 2026-05-04 19:37 | 44.81612 | 20.30982 | 304 ft | 19 kts | 302° |
| 2026-05-04 19:37 | 44.81686 | 20.30813 | 307 ft | 21 kts | 302° |
| 2026-05-04 19:38 | 44.81769 | 20.30628 | 308 ft | 24 kts | 302° |
| 2026-05-04 19:38 | 44.81861 | 20.30422 | 307 ft | 26 kts | 301° |
| 2026-05-04 19:38 | 44.81955 | 20.30211 | 307 ft | 24 kts | 302° |
| 2026-05-04 19:38 | 44.82045 | 20.30010 | 307 ft | 25 kts | 302° |
| 2026-05-04 19:39 | 44.82127 | 20.29824 | 307 ft | 17 kts | 302° |
| 2026-05-04 19:39 | 44.82175 | 20.29715 | 308 ft | 11 kts | 302° |
| 2026-05-04 19:39 | 44.82187 | 20.29613 | 309 ft | 12 kts | 234° |
| 2026-05-04 19:39 | 44.82110 | 20.29537 | 310 ft | 13 kts | 213° |
| 2026-05-04 19:40 | 44.82062 | 20.29493 | 309 ft | 4 kts | 212° |
| 2026-05-04 19:40 | 44.82026 | 20.29463 | 307 ft | 8 kts | 211° |
| 2026-05-04 19:40 | 44.81988 | 20.29414 | 308 ft | 6 kts | 265° |
| 2026-05-04 19:40 | 44.82008 | 20.29363 | 308 ft | 2 kts | 302° |
| 2026-05-04 19:41 | 44.82014 | 20.29350 | 308 ft | 0 kts | 302° |